Time;durP1;ratioP1;P1;durP2;ratioP2;P2;SDS_P1;SDS_P2;PMS_P1;PMS_P2;Temp;Humidity;BMP_temperature;BMP_pressure;BME280_temperature;BME280_humidity;BME280_pressure;Samples;Min_cycle;Max_cycle;Signal;HPM_P1;HPM_P2
2021/09/24 00:00:36;;;;;;;7.43;4.82;;;;;;;;;;4961742;28;20063;-69
2021/09/24 00:03:03;;;;;;;6.90;5.38;;;;;;;;;;4955944;28;20123;-69
2021/09/24 00:05:30;;;;;;;6.90;4.30;;;;;;;;;;4956212;29;20474;-69
2021/09/24 00:07:57;;;;;;;8.20;4.53;;;;;;;;;;4955907;29;20051;-69
2021/09/24 00:10:23;;;;;;;6.38;4.55;;;;;;;;;;4956174;28;20051;-69
2021/09/24 00:12:50;;;;;;;7.97;4.30;;;;;;;;;;4955798;29;20062;-69
2021/09/24 00:15:17;;;;;;;7.93;4.72;;;;;;;;;;4956104;29;20089;-70
2021/09/24 00:17:44;;;;;;;6.63;4.85;;;;;;;;;;4956164;29;20093;-70
2021/09/24 00:20:11;;;;;;;6.00;4.60;;;;;;;;;;4956176;28;20104;-70
2021/09/24 00:22:38;;;;;;;6.47;4.13;;;;;;;;;;4955954;29;20062;-71
2021/09/24 00:25:06;;;;;;;8.75;4.78;;;;;;;;;;4955964;29;20058;-70
2021/09/24 00:27:33;;;;;;;6.13;5.03;;;;;;;;;;4956088;29;20051;-70
2021/09/24 00:30:00;;;;;;;8.02;4.60;;;;;;;;;;4955900;28;20051;-70
2021/09/24 00:32:27;;;;;;;8.25;5.13;;;;;;;;;;4955958;28;20138;-70
2021/09/24 00:34:53;;;;;;;6.40;4.30;;;;;;;;;;4954637;28;20106;-70
2021/09/24 00:37:20;;;;;;;7.15;5.28;;;;;;;;;;4955807;29;20051;-70
2021/09/24 00:39:47;;;;;;;8.18;4.60;;;;;;;;;;4956065;28;20482;-70
2021/09/24 00:42:13;;;;;;;6.82;4.78;;;;;;;;;;4966920;28;20062;-70
2021/09/24 00:44:42;;;;;;;8.30;5.10;;;;;;;;;;4968317;28;20051;-70
2021/09/24 00:47:08;;;;;;;6.10;4.57;;;;;;;;;;4955888;29;20126;-70
2021/09/24 00:49:35;;;;;;;7.20;4.53;;;;;;;;;;4955577;28;20138;-70
2021/09/24 00:52:04;;;;;;;6.63;4.70;;;;;;;;;;4964317;28;20046;-70
2021/09/24 00:54:31;;;;;;;7.15;4.88;;;;;;;;;;4957652;28;20513;-70
2021/09/24 00:56:57;;;;;;;4.68;4.15;;;;;;;;;;4974842;28;20410;-69
2021/09/24 00:59:24;;;;;;;5.15;4.47;;;;;;;;;;4975046;28;20054;-69
2021/09/24 01:01:51;;;;;;;5.82;4.45;;;;;;;;;;4973170;28;20058;-69
2021/09/24 01:04:18;;;;;;;4.97;4.47;;;;;;;;;;4963094;28;20062;-69
2021/09/24 01:06:45;;;;;;;6.50;4.55;;;;;;;;;;4955342;29;20051;-69
2021/09/24 01:09:11;;;;;;;5.97;4.75;;;;;;;;;;4954900;28;20126;-69
2021/09/24 01:11:38;;;;;;;7.20;5.10;;;;;;;;;;4955007;29;20498;-69
2021/09/24 01:14:05;;;;;;;6.57;5.28;;;;;;;;;;4955178;29;20055;-69
2021/09/24 01:16:32;;;;;;;5.93;4.60;;;;;;;;;;4973886;28;20062;-69
2021/09/24 01:18:59;;;;;;;7.85;4.88;;;;;;;;;;4974157;28;20085;-69
2021/09/24 01:21:42;;;;;;;6.65;4.20;;;;;;;;;;4972265;28;20066;-69
2021/09/24 01:24:10;;;;;;;7.05;4.78;;;;;;;;;;4974214;28;20051;-69
2021/09/24 01:26:47;;;;;;;6.65;4.00;;;;;;;;;;4974260;28;20051;-68
2021/09/24 01:29:13;;;;;;;8.15;5.53;;;;;;;;;;4973198;28;20057;-68
2021/09/24 01:31:41;;;;;;;7.32;4.80;;;;;;;;;;4970522;28;20049;-69
2021/09/24 01:34:07;;;;;;;6.07;4.40;;;;;;;;;;4954697;29;20055;-68
2021/09/24 01:36:34;;;;;;;6.07;4.68;;;;;;;;;;4954820;29;20051;-69
2021/09/24 01:39:09;;;;;;;6.35;4.80;;;;;;;;;;4954490;28;20054;-69
2021/09/24 01:41:40;;;;;;;8.60;4.88;;;;;;;;;;4954466;29;20138;-68
2021/09/24 01:44:07;;;;;;;6.20;4.95;;;;;;;;;;4954781;29;20051;-68
2021/09/24 01:46:42;;;;;;;6.57;4.63;;;;;;;;;;4954220;28;20057;-69
2021/09/24 01:49:09;;;;;;;6.78;4.93;;;;;;;;;;4954314;28;20131;-69
2021/09/24 01:51:37;;;;;;;6.22;5.18;;;;;;;;;;4954399;29;20051;-70
2021/09/24 01:54:04;;;;;;;8.15;5.22;;;;;;;;;;4954328;29;20166;-69
2021/09/24 01:56:31;;;;;;;5.82;4.43;;;;;;;;;;4921832;29;20051;-70
2021/09/24 01:58:58;;;;;;;5.07;4.45;;;;;;;;;;4954212;28;20054;-69
2021/09/24 02:01:24;;;;;;;10.25;5.05;;;;;;;;;;4954143;29;20499;-69
2021/09/24 02:03:52;;;;;;;6.30;4.90;;;;;;;;;;4973269;28;20055;-69
2021/09/24 02:06:18;;;;;;;7.03;4.53;;;;;;;;;;4973648;28;20423;-69
2021/09/24 02:08:45;;;;;;;5.50;4.53;;;;;;;;;;4973413;28;20054;-69
2021/09/24 02:11:12;;;;;;;5.97;4.75;;;;;;;;;;4973603;28;20065;-69
2021/09/24 02:13:40;;;;;;;6.15;4.85;;;;;;;;;;4956146;28;20059;-69
2021/09/24 02:16:07;;;;;;;7.55;5.40;;;;;;;;;;4954240;29;20134;-70
2021/09/24 02:18:35;;;;;;;9.07;5.75;;;;;;;;;;4954104;28;20500;-70
2021/09/24 02:21:02;;;;;;;7.80;5.43;;;;;;;;;;4954005;29;20063;-69
2021/09/24 02:23:28;;;;;;;6.28;4.70;;;;;;;;;;4953831;29;20082;-69
2021/09/24 02:25:55;;;;;;;6.88;4.35;;;;;;;;;;4953911;29;20053;-69
2021/09/24 02:28:22;;;;;;;9.82;5.07;;;;;;;;;;4953966;28;20055;-69
2021/09/24 02:30:48;;;;;;;6.63;4.53;;;;;;;;;;4953980;29;20109;-69
2021/09/24 02:33:15;;;;;;;6.05;4.32;;;;;;;;;;4967009;28;20053;-69
2021/09/24 02:35:42;;;;;;;6.85;4.80;;;;;;;;;;4973216;28;20054;-69
2021/09/24 02:38:09;;;;;;;5.65;4.55;;;;;;;;;;4972887;28;20738;-70
2021/09/24 02:40:36;;;;;;;7.72;5.30;;;;;;;;;;4973103;28;20054;-70
2021/09/24 02:43:02;;;;;;;8.82;5.28;;;;;;;;;;4972313;28;20549;-69
2021/09/24 02:45:29;;;;;;;5.70;4.80;;;;;;;;;;4973367;28;20055;-69
2021/09/24 02:47:56;;;;;;;8.93;5.38;;;;;;;;;;4973009;28;20054;-69
2021/09/24 02:50:23;;;;;;;9.85;4.25;;;;;;;;;;4972922;28;20061;-69
2021/09/24 02:52:49;;;;;;;6.93;5.28;;;;;;;;;;4972758;28;20054;-69
2021/09/24 02:55:19;;;;;;;8.65;5.97;;;;;;;;;;4973069;28;20058;-69
2021/09/24 02:57:46;;;;;;;10.40;5.22;;;;;;;;;;4974153;28;20434;-70
2021/09/24 03:00:16;;;;;;;6.50;5.10;;;;;;;;;;4976810;28;20580;-70
2021/09/24 03:02:46;;;;;;;7.93;5.60;;;;;;;;;;4976218;28;20465;-70
2021/09/24 03:05:14;;;;;;;5.95;5.03;;;;;;;;;;4976605;28;20057;-70
2021/09/24 03:07:40;;;;;;;5.70;5.07;;;;;;;;;;4976804;28;20416;-69
2021/09/24 03:10:08;;;;;;;6.53;4.80;;;;;;;;;;4976571;28;20047;-70
2021/09/24 03:12:34;;;;;;;8.13;5.07;;;;;;;;;;4976202;28;20046;-70
2021/09/24 03:15:02;;;;;;;6.38;4.88;;;;;;;;;;4976362;28;20051;-70
2021/09/24 03:17:33;;;;;;;10.70;6.73;;;;;;;;;;4960127;28;20054;-70
2021/09/24 03:20:00;;;;;;;6.88;5.07;;;;;;;;;;4976366;28;20070;-70
2021/09/24 03:22:27;;;;;;;6.10;5.25;;;;;;;;;;4976163;28;20403;-70
2021/09/24 03:24:54;;;;;;;7.68;5.50;;;;;;;;;;4976431;28;20061;-70
2021/09/24 03:27:21;;;;;;;8.65;5.68;;;;;;;;;;4959440;28;20061;-70
2021/09/24 03:29:47;;;;;;;10.95;5.68;;;;;;;;;;4976321;28;20053;-70
2021/09/24 03:32:18;;;;;;;7.63;4.80;;;;;;;;;;4976006;28;20047;-70
2021/09/24 03:34:46;;;;;;;10.10;5.32;;;;;;;;;;4976383;28;20407;-70
2021/09/24 03:37:13;;;;;;;9.40;6.05;;;;;;;;;;4976230;28;20494;-70
2021/09/24 03:39:40;;;;;;;9.20;5.93;;;;;;;;;;4976143;28;20170;-70
2021/09/24 03:42:07;;;;;;;10.85;6.38;;;;;;;;;;4973247;28;20054;-70
2021/09/24 03:44:34;;;;;;;6.30;5.20;;;;;;;;;;4956850;29;20047;-70
2021/09/24 03:47:01;;;;;;;11.32;5.78;;;;;;;;;;4956709;29;20055;-70
2021/09/24 03:49:28;;;;;;;9.38;6.07;;;;;;;;;;4956589;28;20139;-70
2021/09/24 03:51:55;;;;;;;9.77;5.90;;;;;;;;;;4956794;28;20055;-70
2021/09/24 03:54:22;;;;;;;7.80;5.63;;;;;;;;;;4975924;28;20141;-70
2021/09/24 03:56:48;;;;;;;7.85;5.47;;;;;;;;;;4975897;28;20053;-70
2021/09/24 03:59:15;;;;;;;7.18;5.00;;;;;;;;;;4975797;28;20047;-70
2021/09/24 04:01:42;;;;;;;9.18;5.07;;;;;;;;;;4975658;28;20078;-70
2021/09/24 04:04:13;;;;;;;7.65;5.72;;;;;;;;;;4975630;28;20054;-70
2021/09/24 04:06:40;;;;;;;10.70;5.97;;;;;;;;;;4970460;28;20053;-70
2021/09/24 04:09:07;;;;;;;9.13;5.80;;;;;;;;;;4975102;28;20538;-69
2021/09/24 04:11:33;;;;;;;5.63;5.00;;;;;;;;;;4975595;28;20054;-69
2021/09/24 04:14:00;;;;;;;7.40;5.38;;;;;;;;;;4975501;28;20050;-69
2021/09/24 04:16:27;;;;;;;6.85;4.63;;;;;;;;;;4975658;28;20050;-70
2021/09/24 04:18:53;;;;;;;6.70;4.93;;;;;;;;;;4975303;28;20051;-70
2021/09/24 04:21:20;;;;;;;9.13;4.78;;;;;;;;;;4975339;28;20426;-70
2021/09/24 04:23:47;;;;;;;6.88;4.97;;;;;;;;;;4975388;28;20062;-70
2021/09/24 04:26:14;;;;;;;7.82;5.40;;;;;;;;;;4975513;28;20057;-70
2021/09/24 04:28:41;;;;;;;7.63;6.10;;;;;;;;;;4975309;28;20130;-70
2021/09/24 04:31:08;;;;;;;8.10;5.55;;;;;;;;;;4975255;28;20051;-70
2021/09/24 04:33:35;;;;;;;10.98;6.60;;;;;;;;;;4974662;28;20058;-70
2021/09/24 04:36:02;;;;;;;7.78;5.70;;;;;;;;;;4975038;28;20059;-69
2021/09/24 04:38:29;;;;;;;7.45;5.70;;;;;;;;;;4974996;28;20057;-69
2021/09/24 04:40:56;;;;;;;8.88;6.20;;;;;;;;;;4975028;28;20047;-70
2021/09/24 04:43:22;;;;;;;9.02;6.32;;;;;;;;;;4974950;28;20055;-70
2021/09/24 04:45:49;;;;;;;8.90;5.95;;;;;;;;;;4958018;28;20066;-70
2021/09/24 04:48:16;;;;;;;7.22;5.70;;;;;;;;;;4974873;28;20051;-70
2021/09/24 04:50:42;;;;;;;7.78;5.68;;;;;;;;;;4974970;28;20050;-69
2021/09/24 04:53:09;;;;;;;7.78;6.15;;;;;;;;;;4973389;28;20105;-70
2021/09/24 04:55:35;;;;;;;8.35;5.63;;;;;;;;;;4975141;28;20105;-69
2021/09/24 04:58:02;;;;;;;8.73;5.85;;;;;;;;;;4974733;28;20577;-69
2021/09/24 05:00:29;;;;;;;10.05;6.22;;;;;;;;;;4974547;28;20050;-69
2021/09/24 05:02:56;;;;;;;8.18;6.13;;;;;;;;;;4974348;28;20399;-69
2021/09/24 05:05:22;;;;;;;10.02;5.65;;;;;;;;;;4974681;28;20054;-69
2021/09/24 05:07:50;;;;;;;6.70;5.43;;;;;;;;;;4974724;28;20061;-69
2021/09/24 05:10:16;;;;;;;8.98;5.45;;;;;;;;;;4957534;28;20093;-69
2021/09/24 05:12:43;;;;;;;8.25;5.57;;;;;;;;;;4974399;28;20058;-69
2021/09/24 05:15:10;;;;;;;7.40;6.20;;;;;;;;;;4974426;28;20054;-69
2021/09/24 05:17:37;;;;;;;6.82;5.57;;;;;;;;;;4974453;28;20086;-69
2021/09/24 05:20:04;;;;;;;7.90;6.25;;;;;;;;;;4973448;28;20050;-69
2021/09/24 05:22:31;;;;;;;8.13;5.53;;;;;;;;;;4974014;28;20689;-70
2021/09/24 05:24:57;;;;;;;7.05;5.50;;;;;;;;;;4973755;28;20101;-67
2021/09/24 05:27:24;;;;;;;11.68;6.70;;;;;;;;;;4974162;28;20059;-68
2021/09/24 05:29:50;;;;;;;7.60;5.38;;;;;;;;;;4974204;28;20490;-68
2021/09/24 05:32:17;;;;;;;8.38;5.50;;;;;;;;;;4956921;28;20051;-68
2021/09/24 05:34:44;;;;;;;7.88;5.78;;;;;;;;;;4974012;28;20495;-68
2021/09/24 05:37:10;;;;;;;7.07;5.35;;;;;;;;;;4974311;28;20105;-68
2021/09/24 05:39:37;;;;;;;9.65;5.95;;;;;;;;;;4974104;28;20051;-68
2021/09/24 05:42:04;;;;;;;8.57;5.78;;;;;;;;;;4973736;28;20719;-69
2021/09/24 05:44:31;;;;;;;8.50;6.03;;;;;;;;;;4973566;28;20069;-68
2021/09/24 05:46:59;;;;;;;10.70;6.38;;;;;;;;;;4973761;28;20106;-69
2021/09/24 05:49:29;;;;;;;10.05;6.47;;;;;;;;;;4956511;28;20047;-69
2021/09/24 05:51:57;;;;;;;8.05;5.63;;;;;;;;;;4973196;28;20050;-69
2021/09/24 05:54:24;;;;;;;12.52;6.30;;;;;;;;;;4973124;28;20098;-69
2021/09/24 05:56:51;;;;;;;7.65;6.10;;;;;;;;;;4972635;28;20502;-69
2021/09/24 05:59:18;;;;;;;13.90;6.40;;;;;;;;;;4973209;28;20549;-69
2021/09/24 06:01:48;;;;;;;8.52;5.88;;;;;;;;;;4972259;28;20122;-69
2021/09/24 06:04:19;;;;;;;;;;;;;;;;;;4969501;28;20051;-67
2021/09/24 06:06:46;;;;;;;7.80;5.80;;;;;;;;;;4973649;28;19968;-66
2021/09/24 06:09:13;;;;;;;11.05;6.50;;;;;;;;;;4973332;28;20054;-67
2021/09/24 06:11:39;;;;;;;8.75;6.25;;;;;;;;;;4973428;28;20113;-67
2021/09/24 06:14:06;;;;;;;10.38;6.72;;;;;;;;;;4973589;28;20055;-67
2021/09/24 06:16:36;;;;;;;9.93;6.68;;;;;;;;;;4973705;28;20051;-67
2021/09/24 06:19:03;;;;;;;7.82;6.43;;;;;;;;;;4956098;28;20556;-67
2021/09/24 06:21:30;;;;;;;10.35;6.35;;;;;;;;;;4973088;28;20098;-67
2021/09/24 06:23:56;;;;;;;7.70;5.93;;;;;;;;;;4973443;28;20101;-67
2021/09/24 06:26:24;;;;;;;14.23;6.32;;;;;;;;;;4973279;28;20050;-66
2021/09/24 06:28:51;;;;;;;7.40;5.32;;;;;;;;;;4973300;28;20058;-67
2021/09/24 06:31:17;;;;;;;8.45;6.38;;;;;;;;;;4956073;28;20051;-67
2021/09/24 06:33:44;;;;;;;9.43;6.65;;;;;;;;;;4972853;28;20047;-67
2021/09/24 06:36:10;;;;;;;10.90;6.40;;;;;;;;;;4973323;28;20105;-67
2021/09/24 06:38:37;;;;;;;9.68;7.22;;;;;;;;;;4973184;28;20058;-67
2021/09/24 06:41:04;;;;;;;12.90;8.32;;;;;;;;;;4973220;28;20109;-66
2021/09/24 06:43:30;;;;;;;11.13;6.72;;;;;;;;;;4972860;28;20046;-67
2021/09/24 06:45:57;;;;;;;13.18;6.43;;;;;;;;;;4973167;28;20046;-66
2021/09/24 06:48:24;;;;;;;9.55;6.85;;;;;;;;;;4973141;28;20102;-67
2021/09/24 06:50:50;;;;;;;10.38;6.55;;;;;;;;;;4956164;28;20051;-67
2021/09/24 06:53:17;;;;;;;7.68;5.80;;;;;;;;;;4972900;28;20407;-67
2021/09/24 06:55:43;;;;;;;8.55;6.10;;;;;;;;;;4973250;28;20054;-67
2021/09/24 06:58:10;;;;;;;10.70;6.63;;;;;;;;;;4973069;28;20057;-67
2021/09/24 07:00:37;;;;;;;8.68;5.97;;;;;;;;;;4973259;28;20577;-68
2021/09/24 07:03:04;;;;;;;11.00;6.22;;;;;;;;;;4972419;28;20063;-67
2021/09/24 07:05:30;;;;;;;10.57;6.22;;;;;;;;;;4972964;28;20074;-66
2021/09/24 07:07:57;;;;;;;8.27;6.25;;;;;;;;;;4970952;28;20078;-68
2021/09/24 07:10:24;;;;;;;11.27;6.38;;;;;;;;;;4972260;28;20054;-63
2021/09/24 07:12:51;;;;;;;9.10;6.47;;;;;;;;;;4971563;28;20051;-64
2021/09/24 07:15:17;;;;;;;7.60;5.55;;;;;;;;;;4972634;28;20145;-64
2021/09/24 07:17:44;;;;;;;7.22;5.32;;;;;;;;;;4959073;28;20047;-62
2021/09/24 07:20:11;;;;;;;9.25;5.80;;;;;;;;;;4969716;28;20493;-63
2021/09/24 07:22:38;;;;;;;7.63;5.13;;;;;;;;;;4965438;28;20504;-62
2021/09/24 07:25:05;;;;;;;8.07;5.28;;;;;;;;;;4979457;28;20112;-64
2021/09/24 07:27:32;;;;;;;6.57;5.38;;;;;;;;;;4983828;28;20096;-63
2021/09/24 07:29:59;;;;;;;7.55;5.30;;;;;;;;;;4964799;28;20043;-64
2021/09/24 07:32:25;;;;;;;7.93;5.40;;;;;;;;;;4983261;28;20501;-66
2021/09/24 07:34:52;;;;;;;10.15;5.57;;;;;;;;;;4982380;28;20074;-68
2021/09/24 07:37:19;;;;;;;9.18;5.28;;;;;;;;;;4978500;28;20046;-64
2021/09/24 07:39:46;;;;;;;9.30;5.40;;;;;;;;;;4980605;28;20456;-66
2021/09/24 07:42:16;;;;;;;6.97;4.57;;;;;;;;;;4974718;28;20702;-65
2021/09/24 07:44:44;;;;;;;8.20;5.05;;;;;;;;;;4976241;28;20434;-63
2021/09/24 07:47:11;;;;;;;8.32;5.28;;;;;;;;;;4980728;28;20055;-64
2021/09/24 07:49:37;;;;;;;6.35;5.30;;;;;;;;;;4979921;28;20066;-65
2021/09/24 07:52:04;;;;;;;7.22;5.03;;;;;;;;;;4980716;28;20120;-64
2021/09/24 07:54:31;;;;;;;9.40;5.15;;;;;;;;;;4978186;28;20057;-64
2021/09/24 07:56:58;;;;;;;6.72;5.05;;;;;;;;;;4977225;28;20046;-66
2021/09/24 07:59:27;;;;;;;6.20;5.03;;;;;;;;;;4977393;28;20058;-65
2021/09/24 08:01:55;;;;;;;5.93;4.82;;;;;;;;;;4975681;28;20129;-65
2021/09/24 08:04:23;;;;;;;6.40;4.97;;;;;;;;;;4976646;28;20109;-66
2021/09/24 08:06:50;;;;;;;7.05;4.57;;;;;;;;;;4976856;28;20065;-66
2021/09/24 08:09:17;;;;;;;7.25;5.22;;;;;;;;;;4976553;28;20057;-66
2021/09/24 08:11:44;;;;;;;7.38;5.10;;;;;;;;;;4977727;28;20098;-66
2021/09/24 08:14:11;;;;;;;7.10;4.90;;;;;;;;;;4978280;28;20050;-64
2021/09/24 08:16:38;;;;;;;7.63;4.68;;;;;;;;;;4975524;28;20497;-65
2021/09/24 08:19:04;;;;;;;6.93;5.15;;;;;;;;;;4977972;28;20050;-66
2021/09/24 08:21:31;;;;;;;9.70;5.15;;;;;;;;;;4978395;28;20046;-65
2021/09/24 08:23:58;;;;;;;5.15;4.65;;;;;;;;;;4975318;28;20086;-64
2021/09/24 08:26:25;;;;;;;7.15;4.32;;;;;;;;;;4978220;28;20050;-63
2021/09/24 08:28:52;;;;;;;6.32;4.45;;;;;;;;;;4977514;28;20050;-66
2021/09/24 08:31:18;;;;;;;6.53;4.80;;;;;;;;;;4978122;28;20055;-65
2021/09/24 08:33:47;;;;;;;5.47;4.18;;;;;;;;;;4975336;28;20046;-64
2021/09/24 08:36:14;;;;;;;6.13;4.40;;;;;;;;;;4976688;28;20057;-65
2021/09/24 08:38:43;;;;;;;10.32;5.20;;;;;;;;;;4978514;28;20110;-65
2021/09/24 08:41:09;;;;;;;6.95;4.45;;;;;;;;;;4977653;28;20102;-67
2021/09/24 08:43:36;;;;;;;7.53;4.68;;;;;;;;;;4976428;28;20061;-65
2021/09/24 08:46:03;;;;;;;5.22;4.45;;;;;;;;;;4977323;28;20054;-65
2021/09/24 08:48:30;;;;;;;6.78;4.72;;;;;;;;;;4978356;28;20058;-68
2021/09/24 08:50:57;;;;;;;10.00;5.50;;;;;;;;;;4962940;28;20059;-65
2021/09/24 08:53:24;;;;;;;7.22;4.82;;;;;;;;;;4977882;28;20387;-65
2021/09/24 08:55:51;;;;;;;7.90;4.93;;;;;;;;;;4975507;28;20061;-66
2021/09/24 08:58:18;;;;;;;7.85;5.22;;;;;;;;;;4976403;28;20050;-66
2021/09/24 09:00:45;;;;;;;8.93;4.97;;;;;;;;;;4976773;28;20097;-67
2021/09/24 09:03:14;;;;;;;5.97;4.85;;;;;;;;;;4974583;28;20050;-66
2021/09/24 09:05:45;;;;;;;5.40;4.72;;;;;;;;;;4974446;28;20422;-65
2021/09/24 09:08:27;;;;;;;8.10;4.75;;;;;;;;;;4983961;28;20058;-64
2021/09/24 09:11:01;;;;;;;11.65;5.22;;;;;;;;;;4981482;28;20047;-69
2021/09/24 09:13:35;;;;;;;8.88;5.60;;;;;;;;;;4980782;28;20050;-72
2021/09/24 09:16:07;;;;;;;9.48;5.57;;;;;;;;;;4984270;28;20054;-69
2021/09/24 09:18:36;;;;;;;5.53;4.93;;;;;;;;;;4981296;28;20050;-69
2021/09/24 09:21:05;;;;;;;9.13;5.55;;;;;;;;;;4980718;28;20047;-69
2021/09/24 09:23:34;;;;;;;8.10;4.95;;;;;;;;;;4979047;28;20088;-69
2021/09/24 09:26:04;;;;;;;7.25;4.28;;;;;;;;;;4949616;28;20098;-70
2021/09/24 09:28:40;;;;;;;9.73;5.22;;;;;;;;;;4984141;28;20054;-71
2021/09/24 09:31:29;;;;;;;8.15;3.80;;;;;;;;;;4977681;28;20068;-69
2021/09/24 09:33:59;;;;;;;5.93;3.80;;;;;;;;;;4980792;28;20047;-68
2021/09/24 09:36:28;;;;;;;5.10;3.85;;;;;;;;;;4980657;28;20051;-68
2021/09/24 09:38:56;;;;;;;10.13;4.10;;;;;;;;;;4983959;28;20060;-69
2021/09/24 09:41:24;;;;;;;6.82;4.65;;;;;;;;;;4981087;28;20069;-67
2021/09/24 09:43:56;;;;;;;7.55;4.03;;;;;;;;;;4978963;28;20121;-68
2021/09/24 09:46:25;;;;;;;4.83;4.00;;;;;;;;;;4981727;28;20055;-69
2021/09/24 09:49:08;;;;;;;9.40;3.80;;;;;;;;;;4967133;28;21014;-71
2021/09/24 09:51:39;;;;;;;5.28;3.25;;;;;;;;;;4978958;28;20046;-67
2021/09/24 09:54:25;;;;;;;5.50;3.90;;;;;;;;;;4981458;28;20106;-68
2021/09/24 09:56:52;;;;;;;7.32;3.90;;;;;;;;;;4982168;28;20101;-68
2021/09/24 09:59:30;;;;;;;4.07;3.40;;;;;;;;;;4983023;28;20046;-68
2021/09/24 10:02:18;;;;;;;7.10;4.05;;;;;;;;;;4982558;28;20043;-70
2021/09/24 10:04:53;;;;;;;7.57;3.67;;;;;;;;;;4976293;28;20050;-68
2021/09/24 10:07:34;;;;;;;6.28;3.55;;;;;;;;;;4970922;28;20046;-70
2021/09/24 10:10:10;;;;;;;4.93;3.20;;;;;;;;;;4959615;28;20057;-70
2021/09/24 10:12:38;;;;;;;4.47;2.90;;;;;;;;;;4974566;28;20105;-70
2021/09/24 10:15:07;;;;;;;3.47;3.17;;;;;;;;;;4977347;28;20483;-68
2021/09/24 10:17:34;;;;;;;5.22;3.30;;;;;;;;;;4976991;28;20796;-65
2021/09/24 10:20:03;;;;;;;13.57;3.67;;;;;;;;;;4974229;28;20102;-65
2021/09/24 10:22:30;;;;;;;7.18;3.97;;;;;;;;;;4973496;28;20058;-67
2021/09/24 10:24:57;;;;;;;4.93;3.67;;;;;;;;;;4960991;28;20128;-66
2021/09/24 10:27:28;;;;;;;6.53;3.70;;;;;;;;;;4975897;28;20486;-66
2021/09/24 10:29:57;;;;;;;6.57;3.40;;;;;;;;;;4961882;28;20053;-66
2021/09/24 10:32:27;;;;;;;4.70;3.38;;;;;;;;;;4962310;28;20058;-66
2021/09/24 10:35:03;;;;;;;6.25;3.38;;;;;;;;;;4982972;28;20054;-66
2021/09/24 10:37:32;;;;;;;6.55;3.80;;;;;;;;;;4981863;28;20054;-66
2021/09/24 10:40:00;;;;;;;6.50;4.10;;;;;;;;;;4980252;28;20109;-67
2021/09/24 10:42:36;;;;;;;5.65;3.13;;;;;;;;;;4960945;28;20055;-66
2021/09/24 10:45:24;;;;;;;3.08;2.78;;;;;;;;;;4981230;28;20046;-66
2021/09/24 10:47:59;;;;;;;6.78;3.17;;;;;;;;;;4978622;28;20062;-67
2021/09/24 10:50:47;;;;;;;5.40;3.38;;;;;;;;;;4980791;28;20468;-66
2021/09/24 10:53:22;;;;;;;4.93;3.28;;;;;;;;;;4948976;28;20109;-67
2021/09/24 10:55:54;;;;;;;3.40;3.10;;;;;;;;;;4980387;28;20502;-66
2021/09/24 10:58:27;;;;;;;4.18;3.03;;;;;;;;;;4959289;28;20047;-66
2021/09/24 11:00:55;;;;;;;;;;;;;;;;;;4981460;28;20421;-66
2021/09/24 11:03:23;;;;;;;6.13;3.55;;;;;;;;;;4981533;28;19922;-64
2021/09/24 11:06:10;;;;;;;3.67;2.75;;;;;;;;;;4981568;28;20142;-65
2021/09/24 11:08:44;;;;;;;5.47;3.55;;;;;;;;;;4981792;28;20053;-72
2021/09/24 11:11:16;;;;;;;3.92;3.25;;;;;;;;;;4977752;28;20055;-66
2021/09/24 11:13:50;;;;;;;6.78;3.25;;;;;;;;;;4979932;28;20050;-66
2021/09/24 11:16:25;;;;;;;4.47;2.83;;;;;;;;;;4977958;28;20057;-66
2021/09/24 11:18:57;;;;;;;3.30;3.00;;;;;;;;;;4982995;28;20506;-64
2021/09/24 11:21:25;;;;;;;5.47;3.17;;;;;;;;;;4972859;28;20047;-68
2021/09/24 11:23:53;;;;;;;4.80;2.92;;;;;;;;;;4984405;28;20457;-68
2021/09/24 11:26:31;;;;;;;3.92;3.10;;;;;;;;;;4963591;28;20092;-69
2021/09/24 11:29:13;;;;;;;6.30;3.78;;;;;;;;;;4965794;28;20143;-70
2021/09/24 11:32:01;;;;;;;4.15;3.53;;;;;;;;;;4964029;28;20536;-66
2021/09/24 11:34:42;;;;;;;3.85;2.95;;;;;;;;;;4984117;28;20050;-65
2021/09/24 11:37:30;;;;;;;4.40;3.43;;;;;;;;;;4983520;28;20539;-67
2021/09/24 11:40:09;;;;;;;2.83;2.50;;;;;;;;;;4982219;28;20526;-66
2021/09/24 11:42:41;;;;;;;4.57;2.65;;;;;;;;;;4984402;28;20054;-66
2021/09/24 11:45:17;;;;;;;5.43;2.63;;;;;;;;;;4986007;28;20126;-66
2021/09/24 11:47:44;;;;;;;4.78;2.45;;;;;;;;;;4980824;28;20441;-66
2021/09/24 11:50:19;;;;;;;3.72;2.63;;;;;;;;;;4985051;28;20574;-66
2021/09/24 11:52:47;;;;;;;3.45;2.25;;;;;;;;;;4985818;28;20051;-66
2021/09/24 11:55:34;;;;;;;2.72;2.50;;;;;;;;;;4984628;28;20046;-66
2021/09/24 11:58:04;;;;;;;3.58;2.75;;;;;;;;;;4983672;28;20062;-67
2021/09/24 12:00:51;;;;;;;2.78;2.47;;;;;;;;;;4983219;28;20518;-66
2021/09/24 12:03:17;;;;;;;3.17;2.60;;;;;;;;;;4982126;28;20505;-67
2021/09/24 12:05:49;;;;;;;2.92;2.70;;;;;;;;;;4985313;28;20057;-66
2021/09/24 12:08:16;;;;;;;4.75;2.63;;;;;;;;;;4984824;28;20050;-67
2021/09/24 12:10:43;;;;;;;3.05;2.75;;;;;;;;;;4982077;28;20054;-67
2021/09/24 12:13:16;;;;;;;4.15;2.53;;;;;;;;;;4982670;28;20070;-66
2021/09/24 12:15:59;;;;;;;2.72;2.42;;;;;;;;;;4981159;28;20055;-67
2021/09/24 12:18:50;;;;;;;4.55;2.38;;;;;;;;;;4986224;28;20052;-66
2021/09/24 12:21:26;;;;;;;3.60;2.70;;;;;;;;;;4969145;28;20046;-67
2021/09/24 12:23:53;;;;;;;2.65;2.00;;;;;;;;;;4967509;28;20050;-66
2021/09/24 12:26:30;;;;;;;2.20;2.00;;;;;;;;;;4982486;28;20105;-67
2021/09/24 12:29:03;;;;;;;3.00;2.13;;;;;;;;;;4985683;28;20399;-66
2021/09/24 12:31:36;;;;;;;4.82;1.88;;;;;;;;;;4980138;28;20093;-66
2021/09/24 12:34:04;;;;;;;2.22;1.90;;;;;;;;;;4978083;28;20077;-67
2021/09/24 12:36:31;;;;;;;3.20;2.47;;;;;;;;;;4978658;28;20494;-67
2021/09/24 12:39:24;;;;;;;2.88;2.25;;;;;;;;;;4984990;28;20138;-66
2021/09/24 12:41:51;;;;;;;4.18;1.95;;;;;;;;;;4976341;28;20505;-66
2021/09/24 12:44:19;;;;;;;2.83;2.13;;;;;;;;;;4966393;28;20054;-66
2021/09/24 12:46:51;;;;;;;3.28;2.33;;;;;;;;;;4952915;28;20109;-66
2021/09/24 12:49:19;;;;;;;2.45;2.25;;;;;;;;;;4984476;28;20051;-66
2021/09/24 12:51:46;;;;;;;4.10;2.40;;;;;;;;;;4982416;28;20047;-67
2021/09/24 12:54:13;;;;;;;2.85;2.22;;;;;;;;;;4986586;28;20105;-67
2021/09/24 12:56:40;;;;;;;2.65;2.40;;;;;;;;;;4967306;28;20054;-65
2021/09/24 12:59:07;;;;;;;2.88;2.45;;;;;;;;;;4980810;28;20101;-67
2021/09/24 13:01:38;;;;;;;2.08;1.88;;;;;;;;;;4982131;28;20042;-68
2021/09/24 13:04:07;;;;;;;2.50;1.80;;;;;;;;;;4985783;28;20141;-68
2021/09/24 13:06:35;;;;;;;2.13;1.92;;;;;;;;;;4984356;28;20046;-68
2021/09/24 13:09:02;;;;;;;2.42;1.65;;;;;;;;;;4966668;28;20055;-69
2021/09/24 13:11:32;;;;;;;2.00;1.85;;;;;;;;;;4983157;28;20043;-68
2021/09/24 13:14:00;;;;;;;2.08;1.90;;;;;;;;;;4981582;28;20050;-67
2021/09/24 13:16:28;;;;;;;2.95;2.08;;;;;;;;;;4965122;28;20050;-67
2021/09/24 13:18:56;;;;;;;2.97;2.40;;;;;;;;;;4983807;28;20510;-69
2021/09/24 13:21:25;;;;;;;2.25;2.13;;;;;;;;;;4972275;28;20105;-73
2021/09/24 13:23:52;;;;;;;4.95;2.17;;;;;;;;;;4939431;28;20051;-72
2021/09/24 13:26:23;;;;;;;3.58;2.38;;;;;;;;;;4979816;28;20050;-72
2021/09/24 13:28:50;;;;;;;3.65;2.20;;;;;;;;;;4981988;28;20494;-68
2021/09/24 13:31:18;;;;;;;2.88;2.53;;;;;;;;;;4979752;28;20053;-70
2021/09/24 13:33:46;;;;;;;3.60;2.30;;;;;;;;;;4985829;28;20429;-72
2021/09/24 13:36:15;;;;;;;3.20;2.90;;;;;;;;;;4981937;28;20108;-71
2021/09/24 13:38:42;;;;;;;2.75;2.55;;;;;;;;;;4982720;28;20050;-71
2021/09/24 13:41:09;;;;;;;3.45;2.60;;;;;;;;;;4979839;28;20113;-72
2021/09/24 13:43:36;;;;;;;3.03;2.72;;;;;;;;;;4965524;28;20053;-72
2021/09/24 13:46:04;;;;;;;2.80;2.60;;;;;;;;;;4982576;28;20105;-73
2021/09/24 13:48:31;;;;;;;2.92;2.70;;;;;;;;;;4970080;28;20536;-70
2021/09/24 13:50:58;;;;;;;4.15;3.00;;;;;;;;;;4951417;28;20132;-69
2021/09/24 13:53:26;;;;;;;4.38;2.80;;;;;;;;;;4978597;28;20055;-70
2021/09/24 13:55:53;;;;;;;3.38;3.08;;;;;;;;;;4984180;28;20046;-72
2021/09/24 13:58:22;;;;;;;5.35;2.75;;;;;;;;;;4950894;28;20054;-67
2021/09/24 14:01:18;;;;;;;4.35;2.92;;;;;;;;;;4983200;28;20065;-74
2021/09/24 14:03:47;;;;;;;3.22;2.92;;;;;;;;;;4964956;28;20058;-70
2021/09/24 14:06:16;;;;;;;3.65;2.80;;;;;;;;;;4965169;28;20137;-73
2021/09/24 14:08:43;;;;;;;3.05;2.75;;;;;;;;;;4981919;28;20050;-70
2021/09/24 14:11:11;;;;;;;3.83;3.28;;;;;;;;;;4982572;28;20055;-69
2021/09/24 14:13:37;;;;;;;3.47;3.17;;;;;;;;;;4975816;28;20106;-70
2021/09/24 14:16:05;;;;;;;3.67;3.25;;;;;;;;;;4983240;28;20128;-72
2021/09/24 14:18:32;;;;;;;3.20;2.80;;;;;;;;;;4980065;28;20055;-73
2021/09/24 14:20:59;;;;;;;3.80;2.90;;;;;;;;;;4975584;28;20526;-73
2021/09/24 14:23:25;;;;;;;5.85;3.13;;;;;;;;;;4962609;28;20505;-75
2021/09/24 14:25:52;;;;;;;3.28;2.67;;;;;;;;;;4965742;28;20101;-70
2021/09/24 14:28:19;;;;;;;4.10;3.13;;;;;;;;;;4983797;28;20053;-69
2021/09/24 14:30:46;;;;;;;4.68;2.97;;;;;;;;;;4980962;28;20133;-65
2021/09/24 14:33:17;;;;;;;4.80;3.92;;;;;;;;;;4980493;28;20050;-68
2021/09/24 14:35:45;;;;;;;4.75;3.30;;;;;;;;;;4971213;28;20046;-68
2021/09/24 14:38:13;;;;;;;3.45;2.92;;;;;;;;;;4979678;28;20490;-68
2021/09/24 14:40:41;;;;;;;4.22;2.78;;;;;;;;;;4960413;28;20089;-68
2021/09/24 14:43:09;;;;;;;4.13;2.90;;;;;;;;;;4972284;28;20061;-66
2021/09/24 14:45:37;;;;;;;3.78;3.45;;;;;;;;;;4978564;28;20101;-64
2021/09/24 14:48:06;;;;;;;3.97;3.50;;;;;;;;;;4982215;28;20054;-66
2021/09/24 14:50:33;;;;;;;3.78;3.10;;;;;;;;;;4979831;28;20477;-68
2021/09/24 14:53:00;;;;;;;4.38;3.38;;;;;;;;;;4972767;28;20042;-67